Esperance Aerodrome, Australia
Current Conditions -  °F | °C
As of 3:00 PM on Friday 24 Oct 2014 (Local Time) from YESP Reporting Station
Clear Clear  
Wind Chill: 68°   Ceiling: Unl
Heat Index: 68°   Visibility: 6mi
Dew Point: 59°   Wind: 15mph
Humidity: 73%   Direction: 140°SE
Pressure: 30"   Gusts: NA
Location:  33.68°S, 121.83°E
Report Text: YESP 240700Z AUTO 14013KT 9999 // NCD 20/15 Q1016
Loading
Personal Weather Stations






























Interactive Weather Map
Tropical Storm Tracking
New forecast layout! Learn more

10-Day Weather Forecast

Advertisements
Track Severe Weather on mobile